sensor_id;sensor_type;location;lat;lon;timestamp;pressure;altitude;pressure_sealevel;temperature;humidity
45763;BME280;37512;52.408;13.356;2023-07-31T00:01:27;100598.75;;;15.69;100.00
45763;BME280;37512;52.408;13.356;2023-07-31T00:05:28;100601.16;;;15.57;100.00
45763;BME280;37512;52.408;13.356;2023-07-31T00:09:30;100599.56;;;15.63;100.00
45763;BME280;37512;52.408;13.356;2023-07-31T00:13:32;100598.34;;;15.64;100.00
45763;BME280;37512;52.408;13.356;2023-07-31T00:17:34;100596.38;;;15.39;100.00
45763;BME280;37512;52.408;13.356;2023-07-31T00:21:35;100590.00;;;15.32;100.00
45763;BME280;37512;52.408;13.356;2023-07-31T00:25:37;100582.41;;;15.32;100.00
45763;BME280;37512;52.408;13.356;2023-07-31T00:29:39;100566.84;;;15.31;100.00
45763;BME280;37512;52.408;13.356;2023-07-31T00:33:43;100566.03;;;15.20;100.00
45763;BME280;37512;52.408;13.356;2023-07-31T00:37:44;100552.47;;;15.15;100.00
45763;BME280;37512;52.408;13.356;2023-07-31T00:41:46;100547.66;;;15.30;100.00
45763;BME280;37512;52.408;13.356;2023-07-31T00:45:48;100538.88;;;15.20;100.00
45763;BME280;37512;52.408;13.356;2023-07-31T00:49:50;100550.47;;;15.19;100.00
45763;BME280;37512;52.408;13.356;2023-07-31T00:53:52;100555.66;;;15.20;100.00
45763;BME280;37512;52.408;13.356;2023-07-31T00:57:56;100560.44;;;14.84;100.00
45763;BME280;37512;52.408;13.356;2023-07-31T01:01:57;100545.28;;;14.92;100.00
45763;BME280;37512;52.408;13.356;2023-07-31T01:10:26;100528.13;;;15.01;100.00
45763;BME280;37512;52.408;13.356;2023-07-31T01:14:30;100523.31;;;15.19;100.00
45763;BME280;37512;52.408;13.356;2023-07-31T01:18:32;100525.69;;;15.32;100.00
45763;BME280;37512;52.408;13.356;2023-07-31T01:27:10;100522.94;;;15.06;100.00
45763;BME280;37512;52.408;13.356;2023-07-31T01:31:22;100511.72;;;15.35;100.00
45763;BME280;37512;52.408;13.356;2023-07-31T01:35:24;100513.28;;;15.36;100.00
45763;BME280;37512;52.408;13.356;2023-07-31T01:39:26;100516.50;;;15.42;100.00
45763;BME280;37512;52.408;13.356;2023-07-31T01:43:28;100514.88;;;15.48;100.00
45763;BME280;37512;52.408;13.356;2023-07-31T01:47:29;100503.66;;;15.62;100.00
45763;BME280;37512;52.408;13.356;2023-07-31T01:51:31;100511.78;;;15.03;100.00
45763;BME280;37512;52.408;13.356;2023-07-31T01:55:35;100514.88;;;15.48;100.00
45763;BME280;37512;52.408;13.356;2023-07-31T01:59:37;100506.91;;;15.43;100.00
45763;BME280;37512;52.408;13.356;2023-07-31T02:03:39;100496.53;;;15.33;100.00
45763;BME280;37512;52.408;13.356;2023-07-31T02:07:40;100497.31;;;15.40;100.00
45763;BME280;37512;52.408;13.356;2023-07-31T02:11:42;100501.34;;;15.25;100.00
45763;BME280;37512;52.408;13.356;2023-07-31T02:15:45;100496.09;;;15.45;100.00
45763;BME280;37512;52.408;13.356;2023-07-31T02:19:46;100494.88;;;15.53;100.00
45763;BME280;37512;52.408;13.356;2023-07-31T02:23:48;100483.69;;;15.53;100.00
45763;BME280;37512;52.408;13.356;2023-07-31T02:27:49;100478.50;;;15.52;100.00
45763;BME280;37512;52.408;13.356;2023-07-31T02:31:51;100484.09;;;15.48;100.00
45763;BME280;37512;52.408;13.356;2023-07-31T02:35:53;100476.56;;;15.27;100.00
45763;BME280;37512;52.408;13.356;2023-07-31T02:39:54;100473.69;;;15.48;100.00
45763;BME280;37512;52.408;13.356;2023-07-31T02:43:56;100468.56;;;15.40;100.00
45763;BME280;37512;52.408;13.356;2023-07-31T02:47:58;100470.16;;;15.37;100.00
45763;BME280;37512;52.408;13.356;2023-07-31T02:51:59;100466.59;;;15.12;100.00
45763;BME280;37512;52.408;13.356;2023-07-31T02:56:01;100476.59;;;15.16;100.00
45763;BME280;37512;52.408;13.356;2023-07-31T03:00:03;100467.88;;;14.71;100.00
45763;BME280;37512;52.408;13.356;2023-07-31T03:04:07;100473.47;;;14.78;100.00
45763;BME280;37512;52.408;13.356;2023-07-31T03:08:09;100467.84;;;14.93;100.00
45763;BME280;37512;52.408;13.356;2023-07-31T03:12:10;100466.28;;;14.74;100.00
45763;BME280;37512;52.408;13.356;2023-07-31T03:16:12;100469.44;;;15.01;100.00
45763;BME280;37512;52.408;13.356;2023-07-31T03:20:13;100457.47;;;14.90;100.00
45763;BME280;37512;52.408;13.356;2023-07-31T03:24:19;100458.28;;;14.79;100.00
45763;BME280;37512;52.408;13.356;2023-07-31T03:28:20;100460.28;;;14.72;100.00
45763;BME280;37512;52.408;13.356;2023-07-31T03:32:22;100449.50;;;14.63;100.00
45763;BME280;37512;52.408;13.356;2023-07-31T03:36:24;100455.09;;;14.56;100.00
45763;BME280;37512;52.408;13.356;2023-07-31T03:40:25;100447.09;;;15.01;100.00
45763;BME280;37512;52.408;13.356;2023-07-31T03:44:27;100445.09;;;14.83;100.00
45763;BME280;37512;52.408;13.356;2023-07-31T03:48:29;100454.66;;;15.00;100.00
45763;BME280;37512;52.408;13.356;2023-07-31T03:52:30;100443.50;;;14.86;100.00
45763;BME280;37512;52.408;13.356;2023-07-31T03:56:32;100446.28;;;15.08;100.00
45763;BME280;37512;52.408;13.356;2023-07-31T04:00:36;100441.47;;;15.15;100.00
45763;BME280;37512;52.408;13.356;2023-07-31T04:04:38;100440.28;;;15.09;100.00
45763;BME280;37512;52.408;13.356;2023-07-31T04:08:39;100435.84;;;15.22;100.00
45763;BME280;37512;52.408;13.356;2023-07-31T04:12:41;100434.22;;;15.36;100.00
45763;BME280;37512;52.408;13.356;2023-07-31T04:16:42;100434.25;;;15.25;100.00
45763;BME280;37512;52.408;13.356;2023-07-31T04:20:44;100428.66;;;15.21;100.00
45763;BME280;37512;52.408;13.356;2023-07-31T04:24:46;100426.25;;;15.31;100.00
45763;BME280;37512;52.408;13.356;2023-07-31T04:28:47;100429.06;;;15.16;100.00
45763;BME280;37512;52.408;13.356;2023-07-31T04:32:49;100419.03;;;15.30;100.00
45763;BME280;37512;52.408;13.356;2023-07-31T04:36:53;100422.66;;;15.26;100.00
45763;BME280;37512;52.408;13.356;2023-07-31T04:40:55;100412.63;;;15.40;100.00
45763;BME280;37512;52.408;13.356;2023-07-31T04:44:56;100405.50;;;15.24;100.00
45763;BME280;37512;52.408;13.356;2023-07-31T04:48:58;100409.56;;;14.95;100.00
45763;BME280;37512;52.408;13.356;2023-07-31T04:53:00;100407.09;;;15.22;100.00
45763;BME280;37512;52.408;13.356;2023-07-31T04:57:01;100413.44;;;15.33;100.00
45763;BME280;37512;52.408;13.356;2023-07-31T05:01:03;100410.22;;;15.42;100.00
45763;BME280;37512;52.408;13.356;2023-07-31T05:05:04;100403.41;;;15.43;100.00
45763;BME280;37512;52.408;13.356;2023-07-31T05:09:06;100401.38;;;15.51;100.00
45763;BME280;37512;52.408;13.356;2023-07-31T05:13:08;100411.84;;;15.36;100.00
45763;BME280;37512;52.408;13.356;2023-07-31T05:17:09;100405.56;;;14.99;100.00
45763;BME280;37512;52.408;13.356;2023-07-31T05:21:11;100406.34;;;15.00;100.00
45763;BME280;37512;52.408;13.356;2023-07-31T05:25:13;100401.50;;;15.18;100.00
45763;BME280;37512;52.408;13.356;2023-07-31T05:29:14;100403.16;;;14.98;100.00
45763;BME280;37512;52.408;13.356;2023-07-31T05:33:16;100405.84;;;15.34;100.00
45763;BME280;37512;52.408;13.356;2023-07-31T05:37:18;100400.75;;;15.07;100.00
45763;BME280;37512;52.408;13.356;2023-07-31T05:41:19;100400.75;;;15.07;100.00
45763;BME280;37512;52.408;13.356;2023-07-31T05:45:21;100398.34;;;15.09;100.00
45763;BME280;37512;52.408;13.356;2023-07-31T05:49:22;100392.69;;;15.31;100.00
45763;BME280;37512;52.408;13.356;2023-07-31T05:53:24;100395.09;;;15.29;100.00
45763;BME280;37512;52.408;13.356;2023-07-31T05:57:26;100395.50;;;15.27;100.00
45763;BME280;37512;52.408;13.356;2023-07-31T06:01:27;100400.66;;;15.32;100.00
45763;BME280;37512;52.408;13.356;2023-07-31T06:05:29;100388.75;;;15.17;100.00
45763;BME280;37512;52.408;13.356;2023-07-31T06:09:31;100394.31;;;15.28;100.00
45763;BME280;37512;52.408;13.356;2023-07-31T06:13:32;100392.34;;;15.18;100.00
45763;BME280;37512;52.408;13.356;2023-07-31T06:17:34;100386.75;;;15.21;100.00
45763;BME280;37512;52.408;13.356;2023-07-31T06:21:36;100383.56;;;15.19;100.00
45763;BME280;37512;52.408;13.356;2023-07-31T06:25:41;100384.72;;;15.22;100.00
45763;BME280;37512;52.408;13.356;2023-07-31T06:29:42;100384.63;;;15.47;100.00
45763;BME280;37512;52.408;13.356;2023-07-31T06:33:44;100379.81;;;15.51;100.00
45763;BME280;37512;52.408;13.356;2023-07-31T06:37:45;100389.41;;;15.50;100.00
45763;BME280;37512;52.408;13.356;2023-07-31T06:41:47;100383.03;;;15.50;100.00
45763;BME280;37512;52.408;13.356;2023-07-31T06:45:49;100375.75;;;15.63;100.00
45763;BME280;37512;52.408;13.356;2023-07-31T06:49:52;100381.72;;;15.68;100.00
45763;BME280;37512;52.408;13.356;2023-07-31T06:53:54;100383.13;;;15.24;100.00
45763;BME280;37512;52.408;13.356;2023-07-31T06:57:56;100386.28;;;15.30;100.00
45763;BME280;37512;52.408;13.356;2023-07-31T07:01:58;100391.13;;;15.19;100.00
45763;BME280;37512;52.408;13.356;2023-07-31T07:06:00;100388.56;;;15.57;100.00
45763;BME280;37512;52.408;13.356;2023-07-31T07:10:03;100386.25;;;15.44;100.00
45763;BME280;37512;52.408;13.356;2023-07-31T07:14:05;100388.69;;;15.32;100.00
45763;BME280;37512;52.408;13.356;2023-07-31T07:18:06;100391.44;;;15.42;100.00
45763;BME280;37512;52.408;13.356;2023-07-31T07:22:09;100398.19;;;15.48;100.00
45763;BME280;37512;52.408;13.356;2023-07-31T07:26:11;100388.25;;;15.37;100.00
45763;BME280;37512;52.408;13.356;2023-07-31T07:30:13;100392.13;;;15.72;100.00
45763;BME280;37512;52.408;13.356;2023-07-31T07:34:15;100377.66;;;15.84;100.00
45763;BME280;37512;52.408;13.356;2023-07-31T07:38:17;100380.97;;;15.61;100.00
45763;BME280;37512;52.408;13.356;2023-07-31T07:42:21;100376.59;;;15.56;100.00
45763;BME280;37512;52.408;13.356;2023-07-31T07:46:22;100382.91;;;15.75;100.00
45763;BME280;37512;52.408;13.356;2023-07-31T07:50:24;100371.88;;;16.13;100.00
45763;BME280;37512;52.408;13.356;2023-07-31T07:54:26;100365.34;;;15.67;100.00
45763;BME280;37512;52.408;13.356;2023-07-31T07:58:28;100378.88;;;15.79;100.00
45763;BME280;37512;52.408;13.356;2023-07-31T08:02:29;100367.41;;;15.52;100.00
45763;BME280;37512;52.408;13.356;2023-07-31T08:06:31;100378.94;;;15.72;100.00
45763;BME280;37512;52.408;13.356;2023-07-31T08:10:33;100379.81;;;15.51;100.00
45763;BME280;37512;52.408;13.356;2023-07-31T08:14:34;100372.56;;;15.61;100.00
45763;BME280;37512;52.408;13.356;2023-07-31T08:18:37;100376.91;;;15.69;100.00
45763;BME280;37512;52.408;13.356;2023-07-31T08:22:38;100372.56;;;15.72;100.00
45763;BME280;37512;52.408;13.356;2023-07-31T08:26:40;100371.00;;;15.56;100.00
45763;BME280;37512;52.408;13.356;2023-07-31T08:30:42;100367.91;;;16.06;100.00
45763;BME280;37512;52.408;13.356;2023-07-31T08:34:44;100359.34;;;15.72;100.00
45763;BME280;37512;52.408;13.356;2023-07-31T08:38:46;100360.72;;;16.05;100.00
45763;BME280;37512;52.408;13.356;2023-07-31T08:42:50;100354.53;;;15.73;100.00
45763;BME280;37512;52.408;13.356;2023-07-31T08:46:51;100359.06;;;16.15;100.00
45763;BME280;37512;52.408;13.356;2023-07-31T08:50:54;100354.56;;;16.25;100.00
45763;BME280;37512;52.408;13.356;2023-07-31T08:54:55;100361.19;;;16.45;100.00
45763;BME280;37512;52.408;13.356;2023-07-31T08:58:57;100353.34;;;16.26;100.00
45763;BME280;37512;52.408;13.356;2023-07-31T09:07:03;100347.03;;;16.60;100.00
45763;BME280;37512;52.408;13.356;2023-07-31T09:11:06;100349.69;;;16.81;100.00
45763;BME280;37512;52.408;13.356;2023-07-31T09:15:08;100341.59;;;16.45;100.00
45763;BME280;37512;52.408;13.356;2023-07-31T09:19:37;100349.84;;;16.60;100.00
45763;BME280;37512;52.408;13.356;2023-07-31T09:23:43;100349.75;;;16.25;100.00
45763;BME280;37512;52.408;13.356;2023-07-31T09:31:58;100353.00;;;16.20;100.00
45763;BME280;37512;52.408;13.356;2023-07-31T09:36:04;100354.41;;;16.43;100.00
45763;BME280;37512;52.408;13.356;2023-07-31T09:40:06;100343.88;;;16.58;100.00
45763;BME280;37512;52.408;13.356;2023-07-31T09:44:08;100338.47;;;16.36;100.00
45763;BME280;37512;52.408;13.356;2023-07-31T09:48:19;100332.16;;;16.28;100.00
45763;BME280;37512;52.408;13.356;2023-07-31T09:52:21;100334.09;;;16.77;100.00
45763;BME280;37512;52.408;13.356;2023-07-31T09:56:23;100327.56;;;16.90;100.00
45763;BME280;37512;52.408;13.356;2023-07-31T10:00:26;100318.03;;;16.81;100.00
45763;BME280;37512;52.408;13.356;2023-07-31T10:04:30;100326.69;;;16.97;100.00
45763;BME280;37512;52.408;13.356;2023-07-31T10:08:34;100322.19;;;17.03;100.00
45763;BME280;37512;52.408;13.356;2023-07-31T10:12:38;100318.25;;;16.97;100.00
45763;BME280;37512;52.408;13.356;2023-07-31T10:16:40;100315.03;;;16.99;100.00
45763;BME280;37512;52.408;13.356;2023-07-31T10:20:43;100315.31;;;17.08;100.00
45763;BME280;37512;52.408;13.356;2023-07-31T10:24:46;100316.72;;;17.23;100.00
45763;BME280;37512;52.408;13.356;2023-07-31T10:28:48;100317.41;;;17.31;100.00
45763;BME280;37512;52.408;13.356;2023-07-31T10:32:52;100302.88;;;17.40;100.00
45763;BME280;37512;52.408;13.356;2023-07-31T10:37:30;100306.94;;;17.93;100.00
45763;BME280;37512;52.408;13.356;2023-07-31T10:41:38;100292.91;;;17.93;100.00
45763;BME280;37512;52.408;13.356;2023-07-31T10:45:42;100292.97;;;18.56;100.00
45763;BME280;37512;52.408;13.356;2023-07-31T10:49:48;100278.25;;;19.49;100.00
45763;BME280;37512;52.408;13.356;2023-07-31T10:54:10;100279.81;;;19.50;100.00
45763;BME280;37512;52.408;13.356;2023-07-31T10:58:13;100259.03;;;19.27;100.00
45763;BME280;37512;52.408;13.356;2023-07-31T11:02:25;100249.00;;;19.26;100.00
45763;BME280;37512;52.408;13.356;2023-07-31T11:06:29;100260.88;;;19.70;100.00
45763;BME280;37512;52.408;13.356;2023-07-31T11:10:30;100245.97;;;19.53;100.00
45763;BME280;37512;52.408;13.356;2023-07-31T11:14:32;100252.72;;;19.76;100.00
45763;BME280;37512;52.408;13.356;2023-07-31T11:18:35;100255.28;;;19.87;100.00
45763;BME280;37512;52.408;13.356;2023-07-31T11:22:37;100251.44;;;19.60;100.00
45763;BME280;37512;52.408;13.356;2023-07-31T11:26:38;100263.13;;;19.59;100.00
45763;BME280;37512;52.408;13.356;2023-07-31T11:30:41;100255.56;;;19.56;100.00
45763;BME280;37512;52.408;13.356;2023-07-31T11:34:53;100264.38;;;19.58;100.00
45763;BME280;37512;52.408;13.356;2023-07-31T11:39:13;100242.59;;;19.78;100.00
45763;BME280;37512;52.408;13.356;2023-07-31T11:43:14;100248.75;;;19.73;100.00
45763;BME280;37512;52.408;13.356;2023-07-31T11:47:19;100248.72;;;19.57;100.00
45763;BME280;37512;52.408;13.356;2023-07-31T11:51:21;100252.56;;;19.47;100.00
45763;BME280;37512;52.408;13.356;2023-07-31T11:55:23;100242.03;;;19.67;100.00
45763;BME280;37512;52.408;13.356;2023-07-31T11:59:25;100241.66;;;19.49;100.00
45763;BME280;37512;52.408;13.356;2023-07-31T12:03:28;100236.81;;;19.49;100.00
45763;BME280;37512;52.408;13.356;2023-07-31T12:07:43;100231.41;;;19.75;100.00
45763;BME280;37512;52.408;13.356;2023-07-31T12:11:46;100230.06;;;20.12;100.00
45763;BME280;37512;52.408;13.356;2023-07-31T12:15:49;100234.53;;;19.44;100.00
45763;BME280;37512;52.408;13.356;2023-07-31T12:19:50;100228.84;;;19.97;100.00
45763;BME280;37512;52.408;13.356;2023-07-31T12:23:52;100228.72;;;19.35;100.00
45763;BME280;37512;52.408;13.356;2023-07-31T12:27:56;100226.63;;;19.55;100.00
45763;BME280;37512;52.408;13.356;2023-07-31T12:31:58;100220.53;;;19.40;100.00
45763;BME280;37512;52.408;13.356;2023-07-31T12:36:01;100224.19;;;19.57;100.00
45763;BME280;37512;52.408;13.356;2023-07-31T12:40:04;100209.94;;;19.81;100.00
45763;BME280;37512;52.408;13.356;2023-07-31T12:44:09;100203.25;;;19.91;100.00
45763;BME280;37512;52.408;13.356;2023-07-31T12:48:11;100197.31;;;20.02;100.00
45763;BME280;37512;52.408;13.356;2023-07-31T12:52:13;100191.09;;;20.82;100.00
45763;BME280;37512;52.408;13.356;2023-07-31T12:56:14;100186.38;;;20.50;100.00
45763;BME280;37512;52.408;13.356;2023-07-31T13:00:16;100192.63;;;20.28;100.00
45763;BME280;37512;52.408;13.356;2023-07-31T13:04:18;100187.69;;;20.32;100.00
45763;BME280;37512;52.408;13.356;2023-07-31T13:08:19;100180.59;;;20.11;100.00
45763;BME280;37512;52.408;13.356;2023-07-31T13:12:21;100181.13;;;20.06;100.00
45763;BME280;37512;52.408;13.356;2023-07-31T13:16:22;100173.09;;;20.04;100.00
45763;BME280;37512;52.408;13.356;2023-07-31T13:20:24;100176.91;;;19.98;100.00
45763;BME280;37512;52.408;13.356;2023-07-31T13:24:26;100174.06;;;19.69;100.00
45763;BME280;37512;52.408;13.356;2023-07-31T13:28:27;100168.66;;;20.07;100.00
45763;BME280;37512;52.408;13.356;2023-07-31T13:32:29;100165.59;;;20.43;100.00
45763;BME280;37512;52.408;13.356;2023-07-31T13:36:30;100157.84;;;20.89;100.00
45763;BME280;37512;52.408;13.356;2023-07-31T13:40:32;100154.44;;;20.82;100.00
45763;BME280;37512;52.408;13.356;2023-07-31T13:44:40;100138.63;;;20.72;100.00
45763;BME280;37512;52.408;13.356;2023-07-31T13:48:42;100141.22;;;20.66;100.00
45763;BME280;37512;52.408;13.356;2023-07-31T13:52:43;100141.22;;;20.66;100.00
45763;BME280;37512;52.408;13.356;2023-07-31T13:56:45;100129.38;;;21.09;100.00
45763;BME280;37512;52.408;13.356;2023-07-31T14:00:47;100132.56;;;21.12;100.00
45763;BME280;37512;52.408;13.356;2023-07-31T14:04:48;100133.16;;;20.52;100.00
45763;BME280;37512;52.408;13.356;2023-07-31T14:08:50;100125.56;;;20.91;100.00
45763;BME280;37512;52.408;13.356;2023-07-31T14:12:51;100125.13;;;20.92;100.00
45763;BME280;37512;52.408;13.356;2023-07-31T14:16:53;100131.97;;;20.36;100.00
45763;BME280;37512;52.408;13.356;2023-07-31T14:20:55;100137.56;;;20.53;100.00
45763;BME280;37512;52.408;13.356;2023-07-31T14:24:57;100122.88;;;20.45;100.00
45763;BME280;37512;52.408;13.356;2023-07-31T14:28:58;100117.59;;;20.47;100.00
45763;BME280;37512;52.408;13.356;2023-07-31T14:33:00;100112.03;;;20.98;100.00
45763;BME280;37512;52.408;13.356;2023-07-31T14:37:04;100112.81;;;20.99;100.00
45763;BME280;37512;52.408;13.356;2023-07-31T14:41:05;100105.94;;;20.87;100.00
45763;BME280;37512;52.408;13.356;2023-07-31T14:45:07;100098.13;;;20.91;100.00
45763;BME280;37512;52.408;13.356;2023-07-31T14:49:10;100097.69;;;20.93;100.00
45763;BME280;37512;52.408;13.356;2023-07-31T14:53:11;100096.66;;;20.61;100.00
45763;BME280;37512;52.408;13.356;2023-07-31T14:57:13;100096.56;;;20.77;100.00
45763;BME280;37512;52.408;13.356;2023-07-31T15:01:14;100090.03;;;20.67;100.00
45763;BME280;37512;52.408;13.356;2023-07-31T15:05:16;100093.56;;;20.42;100.00
45763;BME280;37512;52.408;13.356;2023-07-31T15:09:18;100085.03;;;20.59;100.00
45763;BME280;37512;52.408;13.356;2023-07-31T15:13:19;100081.09;;;20.56;100.00
45763;BME280;37512;52.408;13.356;2023-07-31T15:17:21;100076.00;;;20.51;100.00
45763;BME280;37512;52.408;13.356;2023-07-31T15:21:22;100079.50;;;20.55;100.00
45763;BME280;37512;52.408;13.356;2023-07-31T15:25:24;100066.50;;;20.45;100.00
45763;BME280;37512;52.408;13.356;2023-07-31T15:29:26;100058.19;;;20.54;100.00
45763;BME280;37512;52.408;13.356;2023-07-31T15:33:27;100054.50;;;20.70;100.00
45763;BME280;37512;52.408;13.356;2023-07-31T15:37:29;100041.75;;;20.65;100.00
45763;BME280;37512;52.408;13.356;2023-07-31T15:41:30;100035.00;;;20.76;100.00
45763;BME280;37512;52.408;13.356;2023-07-31T15:45:32;100028.88;;;20.52;100.00
45763;BME280;37512;52.408;13.356;2023-07-31T15:49:34;100034.84;;;20.79;100.00
45763;BME280;37512;52.408;13.356;2023-07-31T15:53:39;100019.06;;;20.82;100.00
45763;BME280;37512;52.408;13.356;2023-07-31T15:57:40;100008.69;;;20.79;100.00
45763;BME280;37512;52.408;13.356;2023-07-31T16:01:42;100021.91;;;20.56;100.00
45763;BME280;37512;52.408;13.356;2023-07-31T16:05:44;100012.28;;;20.92;100.00
45763;BME280;37512;52.408;13.356;2023-07-31T16:09:45;100014.56;;;20.72;100.00
45763;BME280;37512;52.408;13.356;2023-07-31T16:13:47;100029.13;;;20.57;100.00
45763;BME280;37512;52.408;13.356;2023-07-31T16:17:48;100032.34;;;20.43;100.00
45763;BME280;37512;52.408;13.356;2023-07-31T16:21:50;100042.16;;;20.38;100.00
45763;BME280;37512;52.408;13.356;2023-07-31T16:25:52;100045.75;;;20.39;100.00
45763;BME280;37512;52.408;13.356;2023-07-31T16:29:53;100064.94;;;20.44;100.00
45763;BME280;37512;52.408;13.356;2023-07-31T16:33:55;100063.00;;;20.28;100.00
45763;BME280;37512;52.408;13.356;2023-07-31T16:37:57;100045.44;;;20.37;100.00
45763;BME280;37512;52.408;13.356;2023-07-31T16:41:58;100035.06;;;20.46;100.00
45763;BME280;37512;52.408;13.356;2023-07-31T16:46:00;100028.91;;;20.64;100.00
45763;BME280;37512;52.408;13.356;2023-07-31T16:50:02;100022.13;;;20.75;100.00
45763;BME280;37512;52.408;13.356;2023-07-31T16:54:03;100014.47;;;20.62;100.00
45763;BME280;37512;52.408;13.356;2023-07-31T16:58:05;100020.06;;;20.50;100.00
45763;BME280;37512;52.408;13.356;2023-07-31T17:02:07;100012.28;;;20.54;100.00
45763;BME280;37512;52.408;13.356;2023-07-31T17:06:09;100006.88;;;20.46;100.00
45763;BME280;37512;52.408;13.356;2023-07-31T17:10:10;100010.38;;;20.38;100.00
45763;BME280;37512;52.408;13.356;2023-07-31T17:14:12;100009.09;;;20.39;100.00
45763;BME280;37512;52.408;13.356;2023-07-31T17:18:17;100007.88;;;20.40;100.00
45763;BME280;37512;52.408;13.356;2023-07-31T17:22:18;100024.22;;;20.19;100.00
45763;BME280;37512;52.408;13.356;2023-07-31T17:26:20;100026.59;;;20.21;100.00
45763;BME280;37512;52.408;13.356;2023-07-31T17:30:21;100025.31;;;20.09;100.00
45763;BME280;37512;52.408;13.356;2023-07-31T17:34:23;100019.34;;;20.07;100.00
45763;BME280;37512;52.408;13.356;2023-07-31T17:38:25;100029.50;;;20.17;100.00
45763;BME280;37512;52.408;13.356;2023-07-31T17:42:26;100020.41;;;19.68;100.00
45763;BME280;37512;52.408;13.356;2023-07-31T17:46:28;100017.19;;;19.69;100.00
45763;BME280;37512;52.408;13.356;2023-07-31T17:50:30;100017.69;;;19.80;100.00
45763;BME280;37512;52.408;13.356;2023-07-31T17:54:32;100027.72;;;19.81;100.00
45763;BME280;37512;52.408;13.356;2023-07-31T17:58:33;100028.06;;;19.83;100.00
45763;BME280;37512;52.408;13.356;2023-07-31T18:02:35;100013.53;;;19.85;100.00
45763;BME280;37512;52.408;13.356;2023-07-31T18:06:39;100018.03;;;19.82;100.00
45763;BME280;37512;52.408;13.356;2023-07-31T18:10:45;100011.06;;;19.58;100.00
45763;BME280;37512;52.408;13.356;2023-07-31T18:14:47;100013.59;;;19.52;100.00
45763;BME280;37512;52.408;13.356;2023-07-31T18:18:48;99999.22;;;19.50;100.00
45763;BME280;37512;52.408;13.356;2023-07-31T18:22:50;99997.81;;;19.42;100.00
45763;BME280;37512;52.408;13.356;2023-07-31T18:26:52;100001.75;;;19.44;100.00
45763;BME280;37512;52.408;13.356;2023-07-31T18:31:00;99999.09;;;19.54;100.00
45763;BME280;37512;52.408;13.356;2023-07-31T18:35:02;99996.69;;;19.39;100.00
45763;BME280;37512;52.408;13.356;2023-07-31T18:39:04;100001.16;;;19.37;100.00
45763;BME280;37512;52.408;13.356;2023-07-31T18:43:07;99990.91;;;19.30;100.00
45763;BME280;37512;52.408;13.356;2023-07-31T18:47:08;99994.25;;;19.25;100.00
45763;BME280;37512;52.408;13.356;2023-07-31T18:51:10;99986.94;;;19.28;100.00
45763;BME280;37512;52.408;13.356;2023-07-31T18:55:11;99991.75;;;19.43;100.00
45763;BME280;37512;52.408;13.356;2023-07-31T18:59:13;99989.31;;;19.29;100.00
45763;BME280;37512;52.408;13.356;2023-07-31T19:03:15;99983.78;;;19.26;100.00
45763;BME280;37512;52.408;13.356;2023-07-31T19:07:17;99982.19;;;19.25;100.00
45763;BME280;37512;52.408;13.356;2023-07-31T19:11:20;99987.75;;;19.12;100.00
45763;BME280;37512;52.408;13.356;2023-07-31T19:15:34;99977.72;;;19.11;100.00
45763;BME280;37512;52.408;13.356;2023-07-31T19:19:36;99985.91;;;19.21;100.00
45763;BME280;37512;52.408;13.356;2023-07-31T19:23:37;99980.19;;;19.25;100.00
45763;BME280;37512;52.408;13.356;2023-07-31T19:27:39;99979.22;;;19.15;100.00
45763;BME280;37512;52.408;13.356;2023-07-31T19:31:44;99982.75;;;19.03;100.00
45763;BME280;37512;52.408;13.356;2023-07-31T19:35:57;99969.72;;;18.76;100.00
45763;BME280;37512;52.408;13.356;2023-07-31T19:39:59;99956.75;;;18.66;100.00
45763;BME280;37512;52.408;13.356;2023-07-31T19:44:01;99958.78;;;18.82;100.00
45763;BME280;37512;52.408;13.356;2023-07-31T19:48:02;99948.41;;;18.63;100.00
45763;BME280;37512;52.408;13.356;2023-07-31T19:52:05;99948.06;;;18.77;100.00
45763;BME280;37512;52.408;13.356;2023-07-31T19:56:06;99945.41;;;18.70;100.00
45763;BME280;37512;52.408;13.356;2023-07-31T20:00:08;99940.50;;;18.57;100.00
45763;BME280;37512;52.408;13.356;2023-07-31T20:04:10;99931.88;;;18.48;100.00
45763;BME280;37512;52.408;13.356;2023-07-31T20:08:11;99925.56;;;18.44;100.00
45763;BME280;37512;52.408;13.356;2023-07-31T20:12:13;99931.00;;;18.51;100.00
45763;BME280;37512;52.408;13.356;2023-07-31T20:16:18;99920.22;;;18.66;100.00
45763;BME280;37512;52.408;13.356;2023-07-31T20:20:19;99925.91;;;18.63;100.00
45763;BME280;37512;52.408;13.356;2023-07-31T20:24:22;99928.53;;;18.37;100.00
45763;BME280;37512;52.408;13.356;2023-07-31T20:28:23;99916.88;;;18.38;100.00
45763;BME280;37512;52.408;13.356;2023-07-31T20:32:25;99906.06;;;18.21;100.00
45763;BME280;37512;52.408;13.356;2023-07-31T20:36:27;99899.56;;;18.24;100.00
45763;BME280;37512;52.408;13.356;2023-07-31T20:40:29;99901.81;;;17.96;100.00
45763;BME280;37512;52.408;13.356;2023-07-31T20:44:30;99886.47;;;18.01;100.00
45763;BME280;37512;52.408;13.356;2023-07-31T20:48:32;99877.09;;;18.24;100.00
45763;BME280;37512;52.408;13.356;2023-07-31T20:52:36;99877.09;;;18.24;100.00